Time;durP1;ratioP1;P1;durP2;ratioP2;P2;SDS_P1;SDS_P2;PMS_P1;PMS_P2;Temp;Humidity;BMP_temperature;BMP_pressure;BME280_temperature;BME280_humidity;BME280_pressure;Samples;Min_cycle;Max_cycle;Signal;HPM_P1;HPM_P2
2021/10/21 00:00:54;;;;;;;12.65;8.25;;;;;;;;;;4929974;29;20134;-68
2021/10/21 00:03:24;;;;;;;12.00;8.20;;;;;;;;;;4923957;29;20849;-68
2021/10/21 00:05:50;;;;;;;10.38;7.00;;;;;;;;;;4917610;29;20055;-68
2021/10/21 00:08:17;;;;;;;11.13;7.32;;;;;;;;;;4928050;29;20055;-68
2021/10/21 00:10:45;;;;;;;11.45;8.50;;;;;;;;;;4930124;29;20098;-68
2021/10/21 00:13:12;;;;;;;10.70;8.20;;;;;;;;;;4924918;29;20048;-68
2021/10/21 00:15:39;;;;;;;10.13;7.75;;;;;;;;;;4931522;29;20126;-68
2021/10/21 00:18:05;;;;;;;14.02;8.10;;;;;;;;;;4927903;29;20059;-68
2021/10/21 00:20:32;;;;;;;12.80;8.80;;;;;;;;;;4925922;29;20056;-68
2021/10/21 00:22:59;;;;;;;12.13;7.63;;;;;;;;;;4923190;29;20048;-68
2021/10/21 00:25:25;;;;;;;13.88;8.88;;;;;;;;;;4926949;29;20106;-68
2021/10/21 00:27:52;;;;;;;14.27;8.57;;;;;;;;;;4925346;29;20059;-68
2021/10/21 00:30:19;;;;;;;16.35;8.55;;;;;;;;;;4923006;29;20120;-68
2021/10/21 00:32:45;;;;;;;16.52;9.20;;;;;;;;;;4920987;29;20092;-68
2021/10/21 00:35:12;;;;;;;12.43;9.55;;;;;;;;;;4927115;29;20471;-68
2021/10/21 00:37:39;;;;;;;13.82;9.18;;;;;;;;;;4925040;29;20096;-68
2021/10/21 00:40:06;;;;;;;18.83;11.02;;;;;;;;;;4929760;29;20048;-68
2021/10/21 00:42:33;;;;;;;16.05;10.77;;;;;;;;;;4928905;29;20048;-68
2021/10/21 00:45:00;;;;;;;17.15;11.32;;;;;;;;;;4930066;29;20043;-68
2021/10/21 00:47:26;;;;;;;17.48;11.13;;;;;;;;;;4920689;29;20099;-68
2021/10/21 00:49:53;;;;;;;17.60;10.20;;;;;;;;;;4926086;29;20052;-68
2021/10/21 00:52:19;;;;;;;18.20;11.68;;;;;;;;;;4925456;29;20052;-68
2021/10/21 00:54:46;;;;;;;13.80;10.27;;;;;;;;;;4932357;29;20056;-68
2021/10/21 00:57:13;;;;;;;17.58;9.52;;;;;;;;;;4917685;29;20479;-68
2021/10/21 00:59:41;;;;;;;14.82;9.15;;;;;;;;;;4929034;29;20107;-68
2021/10/21 01:02:08;;;;;;;15.25;9.48;;;;;;;;;;4911966;29;20115;-68
2021/10/21 01:04:35;;;;;;;12.07;8.63;;;;;;;;;;4929764;29;20055;-68
2021/10/21 01:07:02;;;;;;;11.82;8.10;;;;;;;;;;4923868;29;20518;-68
2021/10/21 01:09:29;;;;;;;13.75;7.85;;;;;;;;;;4926780;29;20047;-68
2021/10/21 01:11:55;;;;;;;13.27;8.20;;;;;;;;;;4916215;29;20468;-69
2021/10/21 01:14:22;;;;;;;11.52;8.65;;;;;;;;;;4892852;29;20047;-69
2021/10/21 01:16:49;;;;;;;13.15;8.93;;;;;;;;;;4926836;29;20054;-69
2021/10/21 01:19:22;;;;;;;13.82;8.98;;;;;;;;;;4925168;29;20341;-69
2021/10/21 01:21:52;;;;;;;12.35;9.07;;;;;;;;;;4925620;29;20063;-69
2021/10/21 01:24:19;;;;;;;13.05;8.75;;;;;;;;;;4922883;29;20111;-69
2021/10/21 01:26:47;;;;;;;14.45;8.75;;;;;;;;;;4925807;29;20122;-69
2021/10/21 01:29:15;;;;;;;11.80;8.52;;;;;;;;;;4923394;29;20107;-69
2021/10/21 01:31:42;;;;;;;13.30;9.45;;;;;;;;;;4925236;29;20797;-69
2021/10/21 01:34:09;;;;;;;11.75;8.52;;;;;;;;;;4925528;29;20051;-68
2021/10/21 01:36:36;;;;;;;10.27;8.80;;;;;;;;;;4924078;29;20044;-68
2021/10/21 01:39:04;;;;;;;12.60;9.18;;;;;;;;;;4928783;29;20099;-69
2021/10/21 01:41:31;;;;;;;12.38;8.98;;;;;;;;;;4923268;29;20052;-69
2021/10/21 01:43:58;;;;;;;14.75;9.00;;;;;;;;;;4925179;29;20055;-69
2021/10/21 01:46:25;;;;;;;9.95;8.50;;;;;;;;;;4927640;29;20047;-68
2021/10/21 01:48:52;;;;;;;11.82;8.27;;;;;;;;;;4922183;29;20135;-69
2021/10/21 01:51:19;;;;;;;15.02;8.75;;;;;;;;;;4912618;29;20065;-69
2021/10/21 01:53:45;;;;;;;11.55;8.00;;;;;;;;;;4927960;29;20055;-69
2021/10/21 01:56:12;;;;;;;9.77;7.68;;;;;;;;;;4923011;29;20052;-69
2021/10/21 01:58:39;;;;;;;11.27;8.02;;;;;;;;;;4928231;29;20095;-68
2021/10/21 02:01:05;;;;;;;8.90;7.78;;;;;;;;;;4913729;29;20056;-69
2021/10/21 02:03:32;;;;;;;10.63;8.35;;;;;;;;;;4924792;29;20048;-69
2021/10/21 02:05:59;;;;;;;11.48;7.90;;;;;;;;;;4926607;29;20056;-69
2021/10/21 02:15:53;;;;;;;9.02;7.07;;;;;;;;;;4934698;29;20500;-68
2021/10/21 02:18:20;;;;;;;11.15;7.50;;;;;;;;;;4934163;29;20110;-69
2021/10/21 02:20:51;;;;;;;9.00;7.00;;;;;;;;;;4934582;29;20103;-69
2021/10/21 02:23:18;;;;;;;7.80;6.95;;;;;;;;;;4917784;29;20052;-69
2021/10/21 02:25:45;;;;;;;8.70;6.85;;;;;;;;;;4934456;29;20059;-68
2021/10/21 02:28:12;;;;;;;13.88;6.75;;;;;;;;;;4934549;29;20051;-69
2021/10/21 02:30:38;;;;;;;9.70;6.10;;;;;;;;;;4934886;29;20463;-68
2021/10/21 02:33:05;;;;;;;9.65;6.63;;;;;;;;;;4934207;29;20047;-68
2021/10/21 02:35:32;;;;;;;10.43;6.57;;;;;;;;;;4934555;29;20055;-68
2021/10/21 02:37:58;;;;;;;10.10;6.40;;;;;;;;;;4934435;29;20055;-69
2021/10/21 02:40:25;;;;;;;11.60;6.88;;;;;;;;;;4934613;29;20051;-68
2021/10/21 02:42:52;;;;;;;10.25;6.63;;;;;;;;;;4934103;29;20483;-68
2021/10/21 02:45:18;;;;;;;8.45;6.30;;;;;;;;;;4934430;29;20051;-69
2021/10/21 02:47:45;;;;;;;7.78;6.57;;;;;;;;;;4934473;29;20059;-69
2021/10/21 02:50:11;;;;;;;8.48;6.57;;;;;;;;;;4934291;29;20060;-68
2021/10/21 02:52:39;;;;;;;7.32;6.18;;;;;;;;;;4934001;29;20554;-68
2021/10/21 02:55:06;;;;;;;9.27;6.13;;;;;;;;;;4934341;29;20052;-68
2021/10/21 02:57:32;;;;;;;8.52;6.82;;;;;;;;;;4934248;29;20048;-68
2021/10/21 02:59:59;;;;;;;10.18;6.97;;;;;;;;;;4934381;29;20055;-69
2021/10/21 03:02:26;;;;;;;11.07;7.35;;;;;;;;;;4934161;29;20047;-68
2021/10/21 03:04:53;;;;;;;10.38;7.18;;;;;;;;;;4934476;29;20134;-69
2021/10/21 03:07:19;;;;;;;10.93;7.50;;;;;;;;;;4935666;29;20055;-69
2021/10/21 03:09:46;;;;;;;11.85;7.50;;;;;;;;;;4938227;29;20055;-69
2021/10/21 03:12:12;;;;;;;13.10;7.60;;;;;;;;;;4937866;29;20094;-69
2021/10/21 03:14:39;;;;;;;8.18;6.70;;;;;;;;;;4938055;29;20434;-69
2021/10/21 03:17:07;;;;;;;9.82;7.38;;;;;;;;;;4938170;29;20059;-69
2021/10/21 03:19:34;;;;;;;7.75;5.93;;;;;;;;;;4938051;29;20051;-69
2021/10/21 03:22:00;;;;;;;6.82;5.13;;;;;;;;;;4937604;29;20083;-68
2021/10/21 03:24:27;;;;;;;4.70;4.20;;;;;;;;;;4937786;29;20062;-68
2021/10/21 03:26:53;;;;;;;6.22;3.92;;;;;;;;;;4937744;29;20099;-68
2021/10/21 03:29:20;;;;;;;3.92;3.53;;;;;;;;;;4937697;29;20471;-69
2021/10/21 03:31:46;;;;;;;4.82;4.00;;;;;;;;;;4937662;29;20051;-68
2021/10/21 03:34:13;;;;;;;4.75;3.67;;;;;;;;;;4937542;29;20503;-69
2021/10/21 03:36:40;;;;;;;3.50;3.17;;;;;;;;;;4937795;29;20077;-68
2021/10/21 03:39:07;;;;;;;5.13;3.40;;;;;;;;;;4937166;29;20048;-68
2021/10/21 03:41:34;;;;;;;3.53;2.55;;;;;;;;;;4937554;29;20084;-68
2021/10/21 03:44:00;;;;;;;3.60;2.35;;;;;;;;;;4937237;29;20103;-68
2021/10/21 03:46:27;;;;;;;2.55;2.30;;;;;;;;;;4937291;29;20114;-69
2021/10/21 03:48:54;;;;;;;5.43;2.95;;;;;;;;;;4937156;29;20107;-69
2021/10/21 03:51:20;;;;;;;2.72;2.47;;;;;;;;;;4936992;29;20495;-68
2021/10/21 03:53:47;;;;;;;5.00;3.33;;;;;;;;;;4937108;29;20047;-69
2021/10/21 03:56:14;;;;;;;3.15;2.50;;;;;;;;;;4937135;29;20556;-69
2021/10/21 03:58:41;;;;;;;5.30;3.40;;;;;;;;;;4937375;29;20047;-69
2021/10/21 04:01:08;;;;;;;3.13;2.38;;;;;;;;;;4937207;29;20399;-68
2021/10/21 04:03:35;;;;;;;2.55;2.30;;;;;;;;;;4936887;29;20055;-69
2021/10/21 04:06:01;;;;;;;2.92;1.92;;;;;;;;;;4937077;29;20107;-68
2021/10/21 04:08:28;;;;;;;2.85;2.05;;;;;;;;;;4937303;29;20055;-69
2021/10/21 04:10:55;;;;;;;2.65;1.65;;;;;;;;;;4937000;29;20142;-68
2021/10/21 04:13:21;;;;;;;3.65;1.60;;;;;;;;;;4936694;29;20435;-68
2021/10/21 04:15:48;;;;;;;5.00;1.48;;;;;;;;;;4936931;29;20051;-68
2021/10/21 04:18:15;;;;;;;3.13;1.20;;;;;;;;;;4935200;29;20060;-68
2021/10/21 04:20:42;;;;;;;2.83;1.10;;;;;;;;;;4936636;29;20570;-69
2021/10/21 04:23:09;;;;;;;1.00;0.98;;;;;;;;;;4936504;29;20056;-68
2021/10/21 04:25:35;;;;;;;2.63;1.30;;;;;;;;;;4937230;29;20484;-68
2021/10/21 04:28:03;;;;;;;1.60;1.40;;;;;;;;;;4936607;29;20063;-68
2021/10/21 04:30:29;;;;;;;2.05;1.35;;;;;;;;;;4936554;29;20051;-68
2021/10/21 04:32:56;;;;;;;1.45;1.10;;;;;;;;;;4936151;29;20047;-69
2021/10/21 04:35:23;;;;;;;1.95;1.38;;;;;;;;;;4936366;29;20102;-69
2021/10/21 04:37:49;;;;;;;3.20;1.70;;;;;;;;;;4936547;29;20055;-68
2021/10/21 04:40:16;;;;;;;2.53;1.60;;;;;;;;;;4936290;29;20062;-68
2021/10/21 04:42:43;;;;;;;2.33;1.33;;;;;;;;;;4936082;29;20103;-68
2021/10/21 04:45:10;;;;;;;5.50;1.33;;;;;;;;;;4973006;23;20584;-67
2021/10/21 04:47:36;;;;;;;2.20;1.10;;;;;;;;;;4938365;29;20054;-67
2021/10/21 04:50:04;;;;;;;1.10;0.88;;;;;;;;;;4955282;29;20106;-69
2021/10/21 04:52:31;;;;;;;5.43;0.95;;;;;;;;;;4938055;29;20425;-70
2021/10/21 04:54:58;;;;;;;2.10;1.20;;;;;;;;;;4950985;28;20059;-70
2021/10/21 04:57:25;;;;;;;2.78;1.15;;;;;;;;;;4974793;28;20499;-70
2021/10/21 04:59:52;;;;;;;2.70;0.70;;;;;;;;;;4957490;28;20525;-70
2021/10/21 05:02:18;;;;;;;2.90;0.75;;;;;;;;;;4974377;28;20054;-70
2021/10/21 05:04:45;;;;;;;5.20;0.73;;;;;;;;;;4941517;28;20050;-70
2021/10/21 05:07:12;;;;;;;2.45;0.93;;;;;;;;;;4957417;28;20115;-70
2021/10/21 05:09:38;;;;;;;2.15;0.68;;;;;;;;;;4957238;28;20050;-70
2021/10/21 05:12:05;;;;;;;4.72;1.00;;;;;;;;;;4974212;28;20465;-69
2021/10/21 05:14:32;;;;;;;3.20;0.85;;;;;;;;;;4957110;28;20042;-69
2021/10/21 05:16:59;;;;;;;3.80;0.55;;;;;;;;;;4957269;28;20050;-71
2021/10/21 05:19:25;;;;;;;4.70;1.10;;;;;;;;;;4974179;28;20561;-69
2021/10/21 05:21:53;;;;;;;2.85;0.93;;;;;;;;;;4974153;28;20135;-69
2021/10/21 05:24:20;;;;;;;3.38;0.55;;;;;;;;;;4956642;28;20043;-70
2021/10/21 05:26:47;;;;;;;4.38;0.90;;;;;;;;;;4956942;28;20063;-69
2021/10/21 05:29:13;;;;;;;7.35;0.70;;;;;;;;;;4973618;28;20054;-69
2021/10/21 05:31:40;;;;;;;7.72;0.80;;;;;;;;;;4973700;28;20054;-68
2021/10/21 05:34:06;;;;;;;4.75;1.17;;;;;;;;;;4973454;28;20050;-69
2021/10/21 05:36:33;;;;;;;4.72;1.27;;;;;;;;;;4973839;28;20462;-69
2021/10/21 05:39:00;;;;;;;4.55;0.68;;;;;;;;;;4974043;28;20462;-69
2021/10/21 05:41:26;;;;;;;4.65;0.77;;;;;;;;;;4973697;28;20046;-69
2021/10/21 05:43:54;;;;;;;5.38;0.88;;;;;;;;;;4956334;28;20043;-70
2021/10/21 05:46:21;;;;;;;8.60;2.60;;;;;;;;;;4940894;28;20473;-68
2021/10/21 05:48:47;;;;;;;6.20;1.42;;;;;;;;;;4956598;28;20090;-70
2021/10/21 05:51:14;;;;;;;4.63;0.70;;;;;;;;;;4973204;28;20058;-68
2021/10/21 05:53:41;;;;;;;1.77;0.60;;;;;;;;;;4956020;28;20093;-69
2021/10/21 05:56:07;;;;;;;3.63;0.80;;;;;;;;;;4973489;28;20055;-69
2021/10/21 05:58:34;;;;;;;4.20;0.73;;;;;;;;;;4956368;28;20047;-69
2021/10/21 06:01:01;;;;;;;8.07;1.35;;;;;;;;;;4973477;28;20469;-68
2021/10/21 06:03:32;;;;;;;8.98;1.40;;;;;;;;;;4973201;28;20110;-70
2021/10/21 06:05:59;;;;;;;3.03;0.73;;;;;;;;;;4973513;28;20053;-69
2021/10/21 06:08:25;;;;;;;5.97;1.27;;;;;;;;;;4956425;28;20105;-71
2021/10/21 06:10:52;;;;;;;8.73;0.90;;;;;;;;;;4956468;28;20054;-68
2021/10/21 06:13:19;;;;;;;6.15;1.05;;;;;;;;;;4972974;28;20105;-68
2021/10/21 06:15:46;;;;;;;5.25;0.90;;;;;;;;;;4956195;28;20054;-69
2021/10/21 06:18:13;;;;;;;8.02;1.35;;;;;;;;;;4952944;28;20054;-68
2021/10/21 06:20:42;;;;;;;5.80;0.80;;;;;;;;;;4954344;28;20050;-68
2021/10/21 06:23:09;;;;;;;5.15;0.90;;;;;;;;;;4953853;28;20076;-68
2021/10/21 06:25:36;;;;;;;5.80;0.85;;;;;;;;;;4970959;28;20340;-68
2021/10/21 06:28:03;;;;;;;9.05;1.95;;;;;;;;;;4971119;28;20058;-68
2021/10/21 06:30:30;;;;;;;8.98;0.95;;;;;;;;;;4970939;28;20054;-68
2021/10/21 06:32:56;;;;;;;6.03;1.08;;;;;;;;;;4970630;28;20474;-68
2021/10/21 06:35:23;;;;;;;7.03;1.33;;;;;;;;;;4953981;28;20055;-68
2021/10/21 06:37:50;;;;;;;6.85;1.40;;;;;;;;;;4971066;28;20121;-68
2021/10/21 06:40:16;;;;;;;3.65;1.08;;;;;;;;;;4985704;28;20054;-69
2021/10/21 06:42:43;;;;;;;9.07;1.17;;;;;;;;;;4952468;28;20047;-68
2021/10/21 06:45:13;;;;;;;3.67;1.17;;;;;;;;;;4953439;28;20059;-69
2021/10/21 06:47:40;;;;;;;4.63;0.80;;;;;;;;;;4954277;28;20082;-68
2021/10/21 06:50:09;;;;;;;5.38;1.20;;;;;;;;;;4953676;28;20058;-68
2021/10/21 06:52:37;;;;;;;4.30;0.98;;;;;;;;;;4970928;28;20058;-68
2021/10/21 06:55:04;;;;;;;5.93;1.52;;;;;;;;;;4970491;28;20043;-68
2021/10/21 06:57:31;;;;;;;3.95;0.93;;;;;;;;;;4953670;28;20568;-68
2021/10/21 06:59:57;;;;;;;6.50;1.13;;;;;;;;;;4970680;28;20063;-69
2021/10/21 07:02:26;;;;;;;4.38;1.17;;;;;;;;;;4970374;28;20516;-68
2021/10/21 07:04:53;;;;;;;8.30;1.20;;;;;;;;;;4970633;28;20042;-68
2021/10/21 07:07:27;;;;;;;6.97;0.80;;;;;;;;;;4970750;28;20056;-69
2021/10/21 07:09:53;;;;;;;3.15;0.80;;;;;;;;;;4969908;28;20865;-68
2021/10/21 07:12:20;;;;;;;8.00;1.50;;;;;;;;;;4970036;28;20137;-69
2021/10/21 07:14:47;;;;;;;3.38;0.63;;;;;;;;;;4953350;28;20051;-68
2021/10/21 07:17:13;;;;;;;5.82;0.93;;;;;;;;;;4968918;28;20156;-69
2021/10/21 07:19:40;;;;;;;4.97;0.80;;;;;;;;;;4966448;28;20403;-69
2021/10/21 07:22:07;;;;;;;13.50;2.00;;;;;;;;;;4968694;28;20078;-68
2021/10/21 07:24:33;;;;;;;6.38;0.90;;;;;;;;;;4969185;28;20502;-68
2021/10/21 07:27:00;;;;;;;6.10;1.15;;;;;;;;;;4951494;28;20058;-69
2021/10/21 07:29:27;;;;;;;8.57;0.80;;;;;;;;;;4969557;28;20192;-70
2021/10/21 07:31:53;;;;;;;3.53;0.50;;;;;;;;;;4951580;28;20046;-68
2021/10/21 07:34:22;;;;;;;5.40;0.40;;;;;;;;;;4971316;28;20046;-68
2021/10/21 07:36:49;;;;;;;4.20;0.75;;;;;;;;;;4953902;28;20466;-67
2021/10/21 07:39:16;;;;;;;5.55;1.52;;;;;;;;;;4971331;28;20042;-67
2021/10/21 07:41:43;;;;;;;2.58;0.55;;;;;;;;;;4970653;28;20105;-67
2021/10/21 07:44:10;;;;;;;3.08;0.90;;;;;;;;;;4970887;28;20047;-67
2021/10/21 07:46:37;;;;;;;3.40;0.22;;;;;;;;;;4954078;28;20046;-67
2021/10/21 07:49:04;;;;;;;4.28;0.50;;;;;;;;;;4970897;28;20082;-68
2021/10/21 07:51:31;;;;;;;2.17;0.43;;;;;;;;;;4971250;28;20050;-67
2021/10/21 07:53:58;;;;;;;3.13;0.65;;;;;;;;;;4973223;28;20054;-68
2021/10/21 07:56:28;;;;;;;5.03;0.52;;;;;;;;;;4957312;28;20051;-68
2021/10/21 07:58:55;;;;;;;24.50;1.55;;;;;;;;;;4958661;28;20557;-68
2021/10/21 08:01:22;;;;;;;2.17;0.30;;;;;;;;;;4957266;28;20047;-68
2021/10/21 08:03:50;;;;;;;2.90;0.38;;;;;;;;;;4956872;28;20054;-67
2021/10/21 08:06:17;;;;;;;7.57;1.10;;;;;;;;;;4957408;28;20047;-68
2021/10/21 08:08:44;;;;;;;1.52;0.30;;;;;;;;;;4956631;28;20058;-68
2021/10/21 08:11:10;;;;;;;3.47;0.50;;;;;;;;;;4974196;28;20051;-66
2021/10/21 08:13:37;;;;;;;3.63;0.65;;;;;;;;;;4935113;28;20057;-66
2021/10/21 08:16:04;;;;;;;3.45;0.35;;;;;;;;;;4973994;28;20800;-66
2021/10/21 08:18:31;;;;;;;3.60;0.50;;;;;;;;;;4956242;28;20517;-67
2021/10/21 08:20:58;;;;;;;3.40;0.55;;;;;;;;;;4974023;28;20066;-68
2021/10/21 08:23:25;;;;;;;1.77;0.50;;;;;;;;;;4973935;28;20054;-67
2021/10/21 08:25:52;;;;;;;2.05;0.57;;;;;;;;;;4973984;28;20129;-67
2021/10/21 08:28:19;;;;;;;2.10;0.32;;;;;;;;;;4973726;28;20105;-67
2021/10/21 08:30:46;;;;;;;1.95;0.40;;;;;;;;;;4976054;28;20460;-68
2021/10/21 08:33:14;;;;;;;2.70;0.30;;;;;;;;;;4933617;28;20055;-71
2021/10/21 08:35:40;;;;;;;0.77;0.35;;;;;;;;;;4946854;28;20047;-69
2021/10/21 08:38:07;;;;;;;5.35;0.50;;;;;;;;;;4956521;28;20591;-67
2021/10/21 08:40:35;;;;;;;2.28;0.30;;;;;;;;;;4973598;28;20046;-64
2021/10/21 08:43:05;;;;;;;1.63;0.32;;;;;;;;;;4974237;28;20050;-64
2021/10/21 08:45:33;;;;;;;3.38;0.50;;;;;;;;;;4957553;28;20506;-64
2021/10/21 08:48:02;;;;;;;2.45;0.50;;;;;;;;;;4957660;28;20097;-64
2021/10/21 08:50:30;;;;;;;3.90;0.50;;;;;;;;;;4974490;28;20054;-66
2021/10/21 08:52:57;;;;;;;3.00;0.30;;;;;;;;;;4974381;28;20106;-66
2021/10/21 08:55:23;;;;;;;2.15;0.45;;;;;;;;;;4974156;28;20501;-67
2021/10/21 08:57:50;;;;;;;1.77;0.30;;;;;;;;;;4974453;28;20050;-67
2021/10/21 09:00:18;;;;;;;2.42;0.68;;;;;;;;;;4973966;28;20050;-67
2021/10/21 09:02:54;;;;;;;0.45;0.20;;;;;;;;;;4972896;28;20553;-67
2021/10/21 09:08:05;;;;;;;2.88;0.70;;;;;;;;;;4941767;28;20129;-67
2021/10/21 09:10:32;;;;;;;1.23;0.38;;;;;;;;;;4974411;28;20054;-67
2021/10/21 09:13:00;;;;;;;2.85;0.20;;;;;;;;;;4974169;28;20097;-67
2021/10/21 09:15:27;;;;;;;1.35;0.30;;;;;;;;;;4974238;28;20046;-67
2021/10/21 09:17:54;;;;;;;2.63;0.20;;;;;;;;;;4957296;28;20046;-67
2021/10/21 09:20:25;;;;;;;0.63;0.20;;;;;;;;;;4957092;28;20070;-67
2021/10/21 09:22:57;;;;;;;0.57;0.15;;;;;;;;;;4973985;28;20094;-67
2021/10/21 09:25:26;;;;;;;0.32;0.30;;;;;;;;;;4974297;28;20051;-67
2021/10/21 09:27:56;;;;;;;1.85;0.20;;;;;;;;;;4957410;28;20054;-67
2021/10/21 09:30:27;;;;;;;1.38;0.30;;;;;;;;;;4974131;28;20046;-67
2021/10/21 09:32:55;;;;;;;1.23;0.28;;;;;;;;;;4972650;28;20400;-67
2021/10/21 09:35:23;;;;;;;1.40;0.30;;;;;;;;;;4956438;28;20580;-67
2021/10/21 09:37:53;;;;;;;1.08;0.20;;;;;;;;;;4941297;28;20054;-67
2021/10/21 09:40:24;;;;;;;0.30;0.30;;;;;;;;;;4956978;28;20602;-65
2021/10/21 09:42:59;;;;;;;0.63;0.20;;;;;;;;;;4941181;28;20046;-68
2021/10/21 09:45:41;;;;;;;1.70;0.32;;;;;;;;;;4956622;28;20047;-66
2021/10/21 09:48:08;;;;;;;0.98;0.10;;;;;;;;;;4958247;28;20453;-67
2021/10/21 09:50:41;;;;;;;0.50;0.20;;;;;;;;;;4956711;28;20111;-67
2021/10/21 09:53:07;;;;;;;;;;;;;;;;;;4956710;28;20538;-67
2021/10/21 09:55:37;;;;;;;1.38;0.10;;;;;;;;;;4973540;28;19922;-66
2021/10/21 09:58:10;;;;;;;0.55;0.30;;;;;;;;;;4956859;28;20074;-67
2021/10/21 10:00:39;;;;;;;0.38;0.10;;;;;;;;;;4973211;28;20125;-66
2021/10/21 10:03:11;;;;;;;1.35;0.30;;;;;;;;;;4973420;28;20105;-66
2021/10/21 10:05:42;;;;;;;;;;;;;;;;;;4956952;28;20058;-67
2021/10/21 10:08:10;;;;;;;0.80;0.30;;;;;;;;;;4956278;28;20372;-67
2021/10/21 10:10:41;;;;;;;2.30;0.30;;;;;;;;;;4940462;28;20118;-67
2021/10/21 10:13:08;;;;;;;1.98;0.43;;;;;;;;;;4956183;28;20109;-67
2021/10/21 10:15:36;;;;;;;1.35;0.25;;;;;;;;;;4973088;28;20097;-67
2021/10/21 10:18:13;;;;;;;3.75;1.13;;;;;;;;;;4972650;28;20058;-67
2021/10/21 10:21:00;;;;;;;3.83;0.63;;;;;;;;;;4945383;28;20054;-65
2021/10/21 10:23:27;;;;;;;1.60;0.47;;;;;;;;;;4973061;28;20150;-67
2021/10/21 10:25:54;;;;;;;2.58;0.60;;;;;;;;;;4940510;28;20055;-66
2021/10/21 10:28:20;;;;;;;3.03;0.63;;;;;;;;;;4973200;28;20050;-65
2021/10/21 10:30:50;;;;;;;1.15;0.40;;;;;;;;;;4956098;28;20053;-66
2021/10/21 10:33:32;;;;;;;1.27;0.40;;;;;;;;;;4972902;28;20062;-66
2021/10/21 10:36:28;;;;;;;1.60;0.50;;;;;;;;;;4973051;28;20074;-66
2021/10/21 10:38:56;;;;;;;2.38;0.50;;;;;;;;;;4973257;28;20054;-67
2021/10/21 10:41:42;;;;;;;1.48;0.82;;;;;;;;;;4955848;28;20126;-66
2021/10/21 10:44:09;;;;;;;2.17;0.57;;;;;;;;;;4993417;23;20469;-62
2021/10/21 10:46:51;;;;;;;4.70;0.90;;;;;;;;;;4955303;29;20082;-62
2021/10/21 10:49:40;;;;;;;2.47;0.50;;;;;;;;;;4955242;29;20133;-63
2021/10/21 10:52:17;;;;;;;3.05;0.90;;;;;;;;;;4955864;29;20051;-62
2021/10/21 10:54:44;;;;;;;1.95;0.45;;;;;;;;;;4961520;28;20043;-63
2021/10/21 10:57:12;;;;;;;1.15;0.40;;;;;;;;;;4972767;28;20055;-62
2021/10/21 10:59:40;;;;;;;2.47;0.63;;;;;;;;;;4973063;28;20055;-63
2021/10/21 11:02:25;;;;;;;4.53;0.77;;;;;;;;;;4972540;28;20082;-63
2021/10/21 11:04:55;;;;;;;2.70;0.70;;;;;;;;;;4972825;28;20050;-62
2021/10/21 11:07:40;;;;;;;2.65;0.85;;;;;;;;;;4973123;28;20141;-63
2021/10/21 11:10:19;;;;;;;2.05;0.70;;;;;;;;;;4973265;28;20109;-62
2021/10/21 11:12:46;;;;;;;2.33;1.13;;;;;;;;;;4972597;28;20054;-63
2021/10/21 11:15:28;;;;;;;4.45;1.92;;;;;;;;;;4972518;28;20047;-63
2021/10/21 11:18:01;;;;;;;3.97;0.98;;;;;;;;;;4973341;28;20047;-63
2021/10/21 11:20:31;;;;;;;1.73;0.47;;;;;;;;;;4971692;28;20477;-63
2021/10/21 11:22:59;;;;;;;3.47;0.57;;;;;;;;;;4972716;28;20560;-63
2021/10/21 11:25:27;;;;;;;4.30;0.95;;;;;;;;;;4972679;28;20101;-63
2021/10/21 11:27:54;;;;;;;6.30;1.10;;;;;;;;;;4973581;28;20101;-63
2021/10/21 11:30:39;;;;;;;1.38;0.50;;;;;;;;;;4976268;28;20104;-63
2021/10/21 11:33:08;;;;;;;2.60;0.45;;;;;;;;;;4976172;28;20577;-63
2021/10/21 11:35:37;;;;;;;7.15;1.42;;;;;;;;;;4976122;28;20054;-64
2021/10/21 11:38:17;;;;;;;3.72;0.75;;;;;;;;;;4976047;28;20051;-63
2021/10/21 11:40:45;;;;;;;9.85;1.50;;;;;;;;;;4976170;28;20065;-64
2021/10/21 11:43:41;;;;;;;4.88;0.90;;;;;;;;;;4975746;28;20055;-64
2021/10/21 11:46:09;;;;;;;6.50;1.63;;;;;;;;;;4975929;28;20058;-63
2021/10/21 11:48:39;;;;;;;4.97;0.98;;;;;;;;;;4975999;28;20129;-64
2021/10/21 11:51:10;;;;;;;4.47;1.27;;;;;;;;;;4975798;28;20106;-63
2021/10/21 11:53:37;;;;;;;6.82;1.05;;;;;;;;;;4975716;28;20078;-63
2021/10/21 11:56:04;;;;;;;5.22;1.20;;;;;;;;;;4975448;28;20105;-63
2021/10/21 11:58:36;;;;;;;8.02;1.40;;;;;;;;;;4975782;28;20110;-64
2021/10/21 12:01:04;;;;;;;4.25;1.00;;;;;;;;;;4975668;28;20469;-63
2021/10/21 12:03:42;;;;;;;7.20;1.30;;;;;;;;;;4975587;28;20176;-63
2021/10/21 12:06:14;;;;;;;7.80;1.10;;;;;;;;;;4975476;28;20430;-63
2021/10/21 12:08:51;;;;;;;5.13;1.50;;;;;;;;;;4975663;28;20062;-63
2021/10/21 12:11:18;;;;;;;3.55;0.80;;;;;;;;;;4975300;28;20128;-64
2021/10/21 12:13:45;;;;;;;5.18;1.10;;;;;;;;;;4975654;28;20082;-63
2021/10/21 12:16:17;;;;;;;2.85;1.17;;;;;;;;;;4975196;28;20046;-63
2021/10/21 12:19:10;;;;;;;3.22;0.82;;;;;;;;;;4961114;28;20137;-63
2021/10/21 12:21:38;;;;;;;;;;;;;;;;;;4975630;28;20059;-64
2021/10/21 12:24:18;;;;;;;1.92;0.50;;;;;;;;;;4975286;28;19944;-63
2021/10/21 12:26:44;;;;;;;2.97;0.80;;;;;;;;;;4975255;28;20501;-64
2021/10/21 12:29:11;;;;;;;3.05;1.00;;;;;;;;;;4957856;28;20050;-63
2021/10/21 12:31:39;;;;;;;3.15;0.80;;;;;;;;;;4974935;28;20054;-63
2021/10/21 12:34:14;;;;;;;1.63;0.52;;;;;;;;;;4974927;28;20429;-64
2021/10/21 12:36:49;;;;;;;2.25;0.63;;;;;;;;;;4975062;28;20042;-65
2021/10/21 12:39:27;;;;;;;2.05;0.57;;;;;;;;;;4974258;28;20070;-63
2021/10/21 12:41:55;;;;;;;6.88;0.60;;;;;;;;;;4973758;28;20129;-63
2021/10/21 12:44:40;;;;;;;1.55;0.50;;;;;;;;;;4974840;28;20402;-64
2021/10/21 12:47:24;;;;;;;4.22;0.60;;;;;;;;;;4975000;28;20094;-64
2021/10/21 12:50:08;;;;;;;0.90;0.40;;;;;;;;;;4974957;28;20050;-63
2021/10/21 12:52:51;;;;;;;2.63;0.80;;;;;;;;;;4974753;28;20050;-63
2021/10/21 12:55:20;;;;;;;3.03;0.70;;;;;;;;;;4974568;28;20047;-65
2021/10/21 12:57:52;;;;;;;2.80;0.90;;;;;;;;;;4957619;28;20151;-63
2021/10/21 13:00:29;;;;;;;1.92;0.65;;;;;;;;;;4973499;28;20109;-63
2021/10/21 13:03:06;;;;;;;3.00;0.80;;;;;;;;;;4974662;28;20058;-63
2021/10/21 13:05:35;;;;;;;5.80;1.10;;;;;;;;;;4974406;28;20047;-64
2021/10/21 13:08:02;;;;;;;2.05;0.70;;;;;;;;;;4974494;28;20050;-63
2021/10/21 13:10:29;;;;;;;1.45;0.50;;;;;;;;;;4973207;28;20051;-63
2021/10/21 13:12:55;;;;;;;2.55;0.80;;;;;;;;;;4957139;28;20102;-63
2021/10/21 13:15:22;;;;;;;3.05;0.50;;;;;;;;;;4974137;28;20129;-63
2021/10/21 13:17:49;;;;;;;3.38;0.50;;;;;;;;;;4974291;28;20058;-62
2021/10/21 13:20:17;;;;;;;3.45;0.60;;;;;;;;;;4957057;28;20058;-63
2021/10/21 13:22:43;;;;;;;1.73;0.80;;;;;;;;;;4974074;28;20054;-63
2021/10/21 13:25:10;;;;;;;1.35;0.40;;;;;;;;;;4973977;28;20498;-63
2021/10/21 13:27:37;;;;;;;3.42;0.30;;;;;;;;;;4974160;28;20112;-63
2021/10/21 13:30:05;;;;;;;0.68;0.40;;;;;;;;;;4973974;28;20051;-63
2021/10/21 13:32:33;;;;;;;2.75;0.40;;;;;;;;;;4973837;28;20054;-63
2021/10/21 13:35:00;;;;;;;1.50;0.60;;;;;;;;;;4973828;28;20046;-63
2021/10/21 13:37:27;;;;;;;1.42;0.30;;;;;;;;;;4973875;28;20050;-63
2021/10/21 13:39:53;;;;;;;2.85;0.40;;;;;;;;;;4974080;28;20046;-63
2021/10/21 13:42:20;;;;;;;4.88;0.95;;;;;;;;;;4973504;28;20085;-62
2021/10/21 13:44:47;;;;;;;2.95;0.70;;;;;;;;;;4973798;28;20150;-63
2021/10/21 13:47:13;;;;;;;0.82;0.30;;;;;;;;;;4973600;28;20501;-63
2021/10/21 13:49:41;;;;;;;0.82;0.32;;;;;;;;;;4973846;28;20051;-63
2021/10/21 13:52:08;;;;;;;5.75;0.55;;;;;;;;;;4973061;28;20465;-63
2021/10/21 13:54:35;;;;;;;1.05;0.30;;;;;;;;;;4973450;28;20051;-63
2021/10/21 13:57:02;;;;;;;3.58;0.40;;;;;;;;;;4973561;28;20054;-62
2021/10/21 13:59:29;;;;;;;4.22;1.05;;;;;;;;;;4973527;28;20155;-64
2021/10/21 14:01:55;;;;;;;1.00;0.40;;;;;;;;;;4973332;28;20089;-62
2021/10/21 14:04:22;;;;;;;3.40;0.50;;;;;;;;;;4973309;28;20439;-63
2021/10/21 14:06:49;;;;;;;2.35;0.95;;;;;;;;;;4973479;28;20047;-64
2021/10/21 14:09:15;;;;;;;3.28;0.40;;;;;;;;;;4973277;28;20477;-64
2021/10/21 14:11:42;;;;;;;3.80;0.50;;;;;;;;;;4973203;28;20066;-63
2021/10/21 14:14:09;;;;;;;1.00;0.50;;;;;;;;;;4973050;28;20465;-63
2021/10/21 14:16:36;;;;;;;1.40;0.47;;;;;;;;;;4973282;28;20114;-63
2021/10/21 14:19:03;;;;;;;0.98;0.38;;;;;;;;;;4973220;28;20050;-63
2021/10/21 14:21:30;;;;;;;1.13;0.30;;;;;;;;;;4973035;28;20046;-62
2021/10/21 14:23:57;;;;;;;2.58;0.60;;;;;;;;;;4973126;28;20050;-63
2021/10/21 14:26:23;;;;;;;1.00;0.32;;;;;;;;;;4973112;28;20114;-63
2021/10/21 14:28:50;;;;;;;0.30;0.20;;;;;;;;;;4973142;28;20497;-62
2021/10/21 14:31:17;;;;;;;1.08;0.43;;;;;;;;;;4972961;28;20113;-63
2021/10/21 14:33:44;;;;;;;1.90;0.60;;;;;;;;;;4972942;28;20062;-63
2021/10/21 14:36:12;;;;;;;2.88;0.50;;;;;;;;;;4972801;28;20105;-63
2021/10/21 14:38:38;;;;;;;2.80;0.60;;;;;;;;;;4973014;28;20113;-63
2021/10/21 14:41:06;;;;;;;1.95;0.63;;;;;;;;;;4971780;28;20055;-63
2021/10/21 14:43:33;;;;;;;1.65;0.40;;;;;;;;;;4972992;28;20051;-63
2021/10/21 14:45:59;;;;;;;3.13;0.55;;;;;;;;;;4972709;28;20094;-63
2021/10/21 14:48:26;;;;;;;1.40;0.70;;;;;;;;;;4972859;28;20047;-63
2021/10/21 14:50:53;;;;;;;4.10;0.80;;;;;;;;;;4955841;28;20055;-63
2021/10/21 14:53:19;;;;;;;3.22;0.47;;;;;;;;;;4972721;28;20054;-63
2021/10/21 14:55:46;;;;;;;2.88;0.77;;;;;;;;;;4972904;28;20051;-63
2021/10/21 14:58:13;;;;;;;5.38;1.98;;;;;;;;;;4972798;28;20076;-63